Aegean Viii — SXKO — position and weather

sailwx.info

Track history (hours):
 
Tides and Currents Weather Stations Pressure Air Temp Water Temp Dewpoint Dewpoint Depression Visibility Wind Speed Wind Dir Waves Ship Positions

Aegean Viii

Last reported at 2016-Sep-25 17:33 UTC. Time now 2016-Sep-25 22:35 UTC.
Position N 38°02' E 023°36'.

Length 75 m; draft 3.8 m.

Type: Tanker. MMSI: 240732000.

Date/timePositionNaut miles runAvg speedWind from/ knotsBaromVisibWave heightAir tempDewpointWater temp
2016-Sep-25 17:33N 38°02' E 023°36'0 0.0
2016-Sep-25 16:33N 38°02' E 023°36'0 0.0
2016-Sep-25 15:33N 38°02' E 023°36'0 0.0
2016-Sep-25 14:33N 38°02' E 023°36'0 0.0
2016-Sep-25 12:33N 38°02' E 023°36'2 2.0
2016-Sep-25 11:33N 38°00' E 023°34'7 6.9
2016-Sep-25 10:33N 37°54' E 023°33'1 0.5
2016-Sep-25 09:32N 37°53' E 023°33'0 0.0
2016-Sep-25 07:33N 37°53' E 023°33'4 1.4
2016-Sep-25 04:33N 37°57' E 023°34'6 0.3
2016-Sep-24 09:11N 38°02' E 023°32'6 1.0
2016-Sep-24 03:33N 37°57' E 023°36'0 0.0
2016-Sep-24 02:33N 37°57' E 023°36'0 0.0
2016-Sep-24 01:33N 37°57' E 023°36'1 1.4
2016-Sep-24 00:33N 37°56' E 023°35'1 0.3
2016-Sep-23 19:33N 37°55' E 023°33'0 0.1
2016-Sep-23 17:33N 37°55' E 023°34'5 5.4
2016-Sep-23 16:33N 38°01' E 023°32'1 1.5
2016-Sep-23 15:33N 38°02' E 023°32'0 0.0
2016-Sep-23 09:33N 38°02' E 023°32'0 0.0
2016-Sep-23 06:33N 38°02' E 023°32'0 0.0
2016-Sep-22 12:33N 38°02' E 023°32'0 0.0
2016-Sep-22 04:33N 38°02' E 023°32'3 0.3
2016-Sep-21 19:33N 38°02' E 023°36'0 0.0
2016-Sep-21 16:33N 38°02' E 023°36'0 0.0
2016-Sep-21 09:33N 38°02' E 023°36'0 0.0
2016-Sep-21 08:33N 38°02' E 023°36'1 0.2
2016-Sep-21 05:33N 38°01' E 023°35'2 1.0
2016-Sep-21 03:33N 38°02' E 023°32'1 0.6
2016-Sep-21 02:33N 38°02' E 023°32'0 0.0
2016-Sep-20 10:33N 38°02' E 023°32'0 0.0
2016-Sep-20 08:33N 38°02' E 023°32'0 0.0
2016-Sep-20 07:33N 38°02' E 023°32'0 0.0
2016-Sep-20 06:34N 38°02' E 023°32'0 0.0
2016-Sep-19 14:29N 38°02' E 023°32'0 0.0
2016-Sep-19 13:33N 38°02' E 023°32'0 0.0
2016-Sep-19 12:33N 38°02' E 023°32'0 0.0
2016-Sep-19 09:33N 38°02' E 023°32'0 0.0
2016-Sep-19 07:33N 38°02' E 023°32'0 0.0
2016-Sep-19 06:33N 38°02' E 023°32'6 0.4
2016-Sep-18 15:34N 37°57' E 023°35'0 0.3
2016-Sep-18 14:33N 37°57' E 023°35'0 0.0
2016-Sep-18 10:33N 37°57' E 023°35'1 0.6
2016-Sep-18 09:33N 37°57' E 023°36'6 0.8
2016-Sep-18 02:33N 38°02' E 023°32'0 0.0
2016-Sep-17 13:13N 38°02' E 023°32'0 0.0
2016-Sep-17 12:33N 38°02' E 023°32'0 0.0
2016-Sep-17 10:33N 38°02' E 023°32'0 0.0
2016-Sep-17 08:33N 38°02' E 023°32'3 2.9
2016-Sep-17 07:34N 38°02' E 023°36'0 0.0
2016-Sep-17 05:33N 38°02' E 023°36'0 0.0
2016-Sep-17 04:33N 38°02' E 023°36'0 0.0
2016-Sep-17 00:34N 38°02' E 023°36'1 0.1
2016-Sep-16 17:33N 38°01' E 023°35'0 0.0
2016-Sep-16 15:33N 38°01' E 023°35'0 0.0
2016-Sep-16 12:33N 38°01' E 023°35'0 0.0
2016-Sep-16 09:33N 38°01' E 023°35'0 0.0
2016-Sep-16 07:33N 38°01' E 023°35'3 0.6
2016-Sep-16 03:34N 38°02' E 023°32'  
Track history (hours):
 
Tides and Currents Weather Stations Pressure Air Temp Water Temp Dewpoint Dewpoint Depression Visibility Wind Speed Wind Dir Waves Ship Positions

Aegean Viii

Last reported at 2016-Sep-25 17:33 UTC. Time now 2016-Sep-25 22:35 UTC.
Position N 38°02' E 023°36'.

Length 75 m; draft 3.8 m.

Type: Tanker. MMSI: 240732000.

Date/timePositionNaut miles runAvg speedWind from/ knotsBaromVisibWave heightAir tempDewpointWater temp
2016-Sep-25 17:33N 38°02' E 023°36'0 0.0
2016-Sep-25 16:33N 38°02' E 023°36'0 0.0
2016-Sep-25 15:33N 38°02' E 023°36'0 0.0
2016-Sep-25 14:33N 38°02' E 023°36'0 0.0
2016-Sep-25 12:33N 38°02' E 023°36'2 2.0
2016-Sep-25 11:33N 38°00' E 023°34'7 6.9
2016-Sep-25 10:33N 37°54' E 023°33'1 0.5
2016-Sep-25 09:32N 37°53' E 023°33'0 0.0
2016-Sep-25 07:33N 37°53' E 023°33'4 1.4
2016-Sep-25 04:33N 37°57' E 023°34'6 0.3
2016-Sep-24 09:11N 38°02' E 023°32'6 1.0
2016-Sep-24 03:33N 37°57' E 023°36'0 0.0
2016-Sep-24 02:33N 37°57' E 023°36'0 0.0
2016-Sep-24 01:33N 37°57' E 023°36'1 1.4
2016-Sep-24 00:33N 37°56' E 023°35'1 0.3
2016-Sep-23 19:33N 37°55' E 023°33'0 0.1
2016-Sep-23 17:33N 37°55' E 023°34'5 5.4
2016-Sep-23 16:33N 38°01' E 023°32'1 1.5
2016-Sep-23 15:33N 38°02' E 023°32'0 0.0
2016-Sep-23 09:33N 38°02' E 023°32'0 0.0
2016-Sep-23 06:33N 38°02' E 023°32'0 0.0
2016-Sep-22 12:33N 38°02' E 023°32'0 0.0
2016-Sep-22 04:33N 38°02' E 023°32'3 0.3
2016-Sep-21 19:33N 38°02' E 023°36'0 0.0
2016-Sep-21 16:33N 38°02' E 023°36'0 0.0
2016-Sep-21 09:33N 38°02' E 023°36'0 0.0
2016-Sep-21 08:33N 38°02' E 023°36'1 0.2
2016-Sep-21 05:33N 38°01' E 023°35'2 1.0
2016-Sep-21 03:33N 38°02' E 023°32'1 0.6
2016-Sep-21 02:33N 38°02' E 023°32'0 0.0
2016-Sep-20 10:33N 38°02' E 023°32'0 0.0
2016-Sep-20 08:33N 38°02' E 023°32'0 0.0
2016-Sep-20 07:33N 38°02' E 023°32'0 0.0
2016-Sep-20 06:34N 38°02' E 023°32'0 0.0
2016-Sep-19 14:29N 38°02' E 023°32'0 0.0
2016-Sep-19 13:33N 38°02' E 023°32'0 0.0
2016-Sep-19 12:33N 38°02' E 023°32'0 0.0
2016-Sep-19 09:33N 38°02' E 023°32'0 0.0
2016-Sep-19 07:33N 38°02' E 023°32'0 0.0
2016-Sep-19 06:33N 38°02' E 023°32'6 0.4
2016-Sep-18 15:34N 37°57' E 023°35'0 0.3
2016-Sep-18 14:33N 37°57' E 023°35'0 0.0
2016-Sep-18 10:33N 37°57' E 023°35'1 0.6
2016-Sep-18 09:33N 37°57' E 023°36'6 0.8
2016-Sep-18 02:33N 38°02' E 023°32'0 0.0
2016-Sep-17 13:13N 38°02' E 023°32'0 0.0
2016-Sep-17 12:33N 38°02' E 023°32'0 0.0
2016-Sep-17 10:33N 38°02' E 023°32'0 0.0
2016-Sep-17 08:33N 38°02' E 023°32'3 2.9
2016-Sep-17 07:34N 38°02' E 023°36'0 0.0
2016-Sep-17 05:33N 38°02' E 023°36'0 0.0
2016-Sep-17 04:33N 38°02' E 023°36'0 0.0
2016-Sep-17 00:34N 38°02' E 023°36'1 0.1
2016-Sep-16 17:33N 38°01' E 023°35'0 0.0
2016-Sep-16 15:33N 38°01' E 023°35'0 0.0
2016-Sep-16 12:33N 38°01' E 023°35'0 0.0
2016-Sep-16 09:33N 38°01' E 023°35'0 0.0
2016-Sep-16 07:33N 38°01' E 023°35'3 0.6
2016-Sep-16 03:34N 38°02' E 023°32'  

Dump ship's entire track history